createdAt,value
2022-08-22T00:02:45.812Z,1.33
2022-08-22T00:02:55.895Z,2.33
2022-08-22T00:03:00.776Z,1.48
2022-08-22T00:06:08.789Z,2.15
2022-08-22T00:08:57.221Z,2.40
2022-08-22T00:11:46.162Z,2.10
2022-08-22T00:20:28.114Z,2.28
2022-08-22T00:23:23.246Z,2.60
2022-08-22T00:29:01.781Z,2.40
2022-08-22T00:31:45.015Z,2.80
2022-08-22T00:34:24.130Z,3.08
2022-08-22T00:37:32.690Z,3.10
2022-08-22T00:40:19.440Z,2.97
2022-08-22T00:43:11.057Z,2.50
2022-08-22T00:45:56.509Z,2.78
2022-08-22T00:49:01.096Z,2.80
2022-08-22T00:51:46.154Z,3.03
2022-08-22T00:54:47.486Z,2.80
2022-08-22T00:57:24.767Z,2.67
2022-08-22T01:00:22.605Z,3.00
2022-08-22T01:03:48.966Z,2.70
2022-08-22T01:06:46.003Z,2.97
2022-08-22T01:09:54.914Z,3.30
2022-08-22T01:12:50.241Z,3.10
2022-08-22T01:15:29.392Z,2.90
2022-08-22T01:18:16.635Z,3.30
2022-08-22T01:27:06.105Z,3.10
2022-08-22T01:29:51.384Z,2.70
2022-08-22T01:33:02.423Z,2.88
2022-08-22T01:35:47.911Z,2.60
2022-08-22T01:38:37.097Z,2.60
2022-08-22T01:41:40.194Z,2.78
2022-08-22T01:44:28.209Z,2.70
2022-08-22T01:47:12.633Z,2.58
2022-08-22T01:52:31.223Z,2.50
2022-08-22T01:55:12.301Z,2.50
2022-08-22T01:57:59.036Z,2.42
2022-08-22T02:04:01.929Z,2.88
2022-08-22T02:06:59.351Z,2.75
2022-08-22T02:10:10.467Z,2.83
2022-08-22T02:13:08.715Z,2.60
2022-08-22T02:15:43.991Z,2.80
2022-08-22T02:18:23.601Z,2.70
2022-08-22T02:21:22.772Z,2.72
2022-08-22T02:24:01.145Z,2.63
2022-08-22T02:27:17.885Z,2.70
2022-08-22T02:32:40.650Z,3.15
2022-08-22T02:35:23.042Z,2.72
2022-08-22T02:38:06.635Z,2.70
2022-08-22T02:41:05.236Z,2.65
2022-08-22T02:43:53.405Z,2.60
2022-08-22T02:46:34.010Z,2.60
2022-08-22T02:52:27.013Z,2.83
2022-08-22T02:55:07.239Z,2.50
2022-08-22T02:57:45.570Z,2.40
2022-08-22T03:00:31.255Z,2.90
2022-08-22T03:03:02.856Z,2.75
2022-08-22T03:05:39.077Z,2.60
2022-08-22T03:08:25.489Z,2.97
2022-08-22T03:11:28.780Z,3.00
2022-08-22T03:14:25.598Z,2.42
2022-08-22T03:17:17.426Z,3.00
2022-08-22T03:20:14.821Z,2.40
2022-08-22T03:23:00.698Z,2.80
2022-08-22T03:31:35.597Z,2.80
2022-08-22T03:34:26.465Z,3.03
2022-08-22T03:37:12.106Z,3.10
2022-08-22T03:43:58.147Z,2.80
2022-08-22T03:47:00.870Z,2.72
2022-08-22T03:49:46.080Z,2.60
2022-08-22T03:52:29.973Z,2.53
2022-08-22T03:55:26.685Z,3.13
2022-08-22T03:58:19.141Z,2.45
2022-08-22T04:01:35.369Z,2.20
2022-08-22T04:04:11.908Z,2.05
2022-08-22T04:13:15.083Z,2.30
2022-08-22T04:15:58.765Z,2.60
2022-08-22T04:19:21.871Z,2.50
2022-08-22T04:22:27.843Z,2.58
2022-08-22T04:25:25.739Z,2.58
2022-08-22T04:28:14.010Z,2.40
2022-08-22T04:31:11.862Z,2.60
2022-08-22T04:34:00.718Z,2.53
2022-08-22T04:36:44.020Z,2.50
2022-08-22T04:39:34.867Z,2.38
2022-08-22T04:42:32.322Z,2.40
2022-08-22T04:45:18.295Z,2.75
2022-08-22T04:47:53.992Z,2.40
2022-08-22T04:50:27.096Z,2.10
2022-08-22T04:53:43.493Z,2.13
2022-08-22T04:56:45.354Z,1.83
2022-08-22T04:59:18.484Z,2.20
2022-08-22T05:01:57.219Z,2.17
2022-08-22T05:04:45.473Z,2.03
2022-08-22T05:07:29.177Z,1.80
2022-08-22T05:10:19.126Z,1.83
2022-08-22T05:13:03.662Z,2.03
2022-08-22T05:15:38.261Z,1.90
2022-08-22T05:18:12.509Z,2.22
2022-08-22T05:20:41.795Z,2.00
2022-08-22T05:23:25.660Z,2.10
2022-08-22T05:26:01.266Z,2.13
2022-08-22T05:28:53.519Z,2.00
2022-08-22T05:31:40.443Z,1.85
2022-08-22T05:34:23.194Z,2.00
2022-08-22T05:37:08.327Z,2.00
2022-08-22T05:39:40.819Z,2.10
2022-08-22T05:42:19.026Z,1.80
2022-08-22T05:44:46.491Z,1.80
2022-08-22T05:47:24.358Z,1.98
2022-08-22T05:50:27.364Z,1.80
2022-08-22T05:53:02.563Z,1.92
2022-08-22T05:55:52.566Z,2.00
2022-08-22T05:59:02.888Z,2.10
2022-08-22T06:02:13.995Z,2.13
2022-08-22T06:04:54.800Z,2.08
2022-08-22T06:07:42.759Z,2.05
2022-08-22T06:10:42.758Z,2.10
2022-08-22T06:13:47.231Z,1.92
2022-08-22T06:16:24.709Z,2.22
2022-08-22T06:18:53.415Z,2.10
2022-08-22T06:21:38.626Z,2.05
2022-08-22T06:24:15.929Z,1.90
2022-08-22T06:26:48.691Z,2.10
2022-08-22T06:29:44.254Z,2.05
2022-08-22T06:32:58.263Z,2.10
2022-08-22T06:35:18.842Z,2.05
2022-08-22T06:37:48.914Z,2.05
2022-08-22T06:40:18.711Z,2.10
2022-08-22T06:42:50.993Z,2.10
2022-08-22T06:45:26.706Z,2.00
2022-08-22T06:48:14.076Z,2.15
2022-08-22T06:50:46.321Z,2.10
2022-08-22T06:53:38.364Z,2.10
2022-08-22T06:56:17.932Z,2.20
2022-08-22T06:58:48.214Z,2.40
2022-08-22T07:01:57.641Z,2.15
2022-08-22T07:04:27.559Z,2.03
2022-08-22T07:06:57.718Z,2.10
2022-08-22T07:09:30.023Z,2.20
2022-08-22T07:12:01.545Z,2.20
2022-08-22T07:14:50.539Z,2.28
2022-08-22T07:17:25.756Z,2.10
2022-08-22T07:20:24.070Z,2.10
2022-08-22T07:23:09.531Z,2.85
2022-08-22T07:26:09.375Z,2.10
2022-08-22T07:28:58.610Z,2.35
2022-08-22T07:31:54.166Z,2.38
2022-08-22T07:34:53.564Z,2.33
2022-08-22T07:38:02.232Z,1.92
2022-08-22T07:41:01.585Z,2.50
2022-08-22T07:43:36.392Z,2.50
2022-08-22T07:46:12.776Z,2.50
2022-08-22T07:52:01.110Z,2.50
2022-08-22T07:57:51.584Z,3.08
2022-08-22T08:00:21.942Z,2.88
2022-08-22T08:03:02.303Z,3.10
2022-08-22T08:05:33.104Z,3.10
2022-08-22T08:08:12.270Z,3.63
2022-08-22T08:10:43.542Z,3.30
2022-08-22T08:13:22.342Z,3.00
2022-08-22T08:15:50.778Z,3.20
2022-08-22T08:18:23.592Z,2.80
2022-08-22T08:20:58.955Z,2.78
2022-08-22T08:23:39.024Z,2.80
2022-08-22T08:26:23.573Z,2.95
2022-08-22T08:28:56.528Z,2.80
2022-08-22T08:31:43.396Z,3.00
2022-08-22T08:34:20.537Z,3.40
2022-08-22T08:37:07.379Z,3.22
2022-08-22T08:39:49.977Z,3.28
2022-08-22T08:43:31.341Z,3.65
2022-08-22T08:46:38.625Z,3.60
2022-08-22T08:49:38.751Z,3.78
2022-08-22T08:53:25.397Z,3.85
2022-08-22T08:56:06.642Z,3.58
2022-08-22T08:58:45.881Z,3.92
2022-08-22T09:01:41.601Z,3.97
2022-08-22T09:04:56.215Z,3.65
2022-08-22T09:07:55.268Z,3.97
2022-08-22T09:10:57.201Z,3.85
2022-08-22T09:13:40.669Z,3.88
2022-08-22T09:16:48.156Z,3.75
2022-08-22T09:22:50.611Z,3.75
2022-08-22T09:25:38.615Z,4.10
2022-08-22T09:28:23.978Z,3.70
2022-08-22T09:31:44.759Z,3.88
2022-08-22T09:34:41.602Z,4.20
2022-08-22T09:37:30.008Z,4.45
2022-08-22T09:40:29.369Z,4.60
2022-08-22T09:43:45.068Z,4.90
2022-08-22T09:46:31.486Z,4.40
2022-08-22T09:52:55.653Z,4.18
2022-08-22T09:55:41.724Z,4.20
2022-08-22T09:58:11.831Z,4.20
2022-08-22T10:00:47.599Z,4.00
2022-08-22T10:04:04.540Z,4.55
2022-08-22T10:06:46.516Z,4.30
2022-08-22T10:09:31.289Z,4.30
2022-08-22T10:12:12.801Z,4.18
2022-08-22T10:15:16.196Z,4.07
2022-08-22T10:18:19.206Z,4.10
2022-08-22T10:21:09.676Z,5.00
2022-08-22T10:24:01.540Z,4.60
2022-08-22T10:27:07.980Z,4.88
2022-08-22T10:30:01.326Z,4.35
2022-08-22T10:33:08.322Z,4.15
2022-08-22T10:36:05.009Z,4.15
2022-08-22T10:38:46.511Z,4.82
2022-08-22T10:41:39.131Z,4.43
2022-08-22T10:44:22.717Z,4.32
2022-08-22T10:47:01.190Z,4.65
2022-08-22T10:49:51.215Z,4.90
2022-08-22T10:52:37.278Z,5.00
2022-08-22T10:55:17.850Z,5.00
2022-08-22T10:58:05.687Z,4.93
2022-08-22T11:00:54.425Z,5.00
2022-08-22T11:04:12.781Z,5.63
2022-08-22T11:06:52.407Z,5.25
2022-08-22T11:09:43.237Z,4.97
2022-08-22T11:12:19.572Z,5.40
2022-08-22T11:15:28.439Z,4.88
2022-08-22T11:18:34.681Z,5.38
2022-08-22T11:21:18.827Z,5.00
2022-08-22T11:26:59.670Z,5.70
2022-08-22T11:29:57.846Z,5.20
2022-08-22T11:33:06.181Z,5.65
2022-08-22T11:35:49.795Z,5.15
2022-08-22T11:38:39.657Z,5.80
2022-08-22T11:41:25.630Z,5.15
2022-08-22T11:44:32.124Z,5.50
2022-08-22T11:47:09.148Z,5.28
2022-08-22T11:50:15.461Z,5.38
2022-08-22T11:53:15.125Z,5.35
2022-08-22T11:56:00.413Z,5.35
2022-08-22T11:58:57.705Z,5.38
2022-08-22T12:01:52.873Z,4.93
2022-08-22T12:04:47.439Z,5.18
2022-08-22T12:07:25.906Z,4.63
2022-08-22T12:10:19.816Z,5.13
2022-08-22T12:13:01.449Z,5.10
2022-08-22T12:15:49.010Z,5.78
2022-08-22T12:18:33.825Z,5.05
2022-08-22T12:21:13.455Z,4.95
2022-08-22T12:23:55.972Z,4.40
2022-08-22T12:26:41.589Z,4.95
2022-08-22T12:29:44.907Z,5.00
2022-08-22T12:33:00.714Z,4.67
2022-08-22T12:35:43.367Z,4.82
2022-08-22T12:38:37.839Z,4.93
2022-08-22T12:41:27.985Z,4.50
2022-08-22T12:44:22.980Z,4.80
2022-08-22T12:47:26.799Z,4.88
2022-08-22T12:50:04.429Z,4.50
2022-08-22T12:52:48.248Z,4.97
2022-08-22T12:55:15.903Z,4.50
2022-08-22T12:58:22.283Z,4.40
2022-08-22T13:00:52.518Z,4.22
2022-08-22T13:03:32.843Z,5.00
2022-08-22T13:06:07.654Z,4.78
2022-08-22T13:08:45.149Z,4.53
2022-08-22T13:11:22.662Z,4.57
2022-08-22T13:13:57.181Z,4.47
2022-08-22T13:19:07.841Z,4.30
2022-08-22T13:21:45.552Z,4.68
2022-08-22T13:24:41.108Z,4.90
2022-08-22T13:27:33.144Z,4.47
2022-08-22T13:30:15.028Z,4.30
2022-08-22T13:32:52.592Z,4.40
2022-08-22T13:36:06.666Z,4.50
2022-08-22T13:38:46.286Z,4.40
2022-08-22T13:41:24.833Z,4.43
2022-08-22T13:44:07.209Z,4.57
2022-08-22T13:46:48.192Z,4.47
2022-08-22T13:49:53.815Z,4.03
2022-08-22T13:52:44.412Z,4.28
2022-08-22T13:55:30.431Z,4.10
2022-08-22T13:58:25.993Z,4.10
2022-08-22T14:01:55.934Z,4.32
2022-08-22T14:04:36.800Z,3.83
2022-08-22T14:07:04.475Z,4.47
2022-08-22T14:10:02.637Z,4.43
2022-08-22T14:12:57.968Z,4.30
2022-08-22T14:15:45.497Z,3.58
2022-08-22T14:18:45.438Z,4.55
2022-08-22T14:21:40.742Z,4.00
2022-08-22T14:24:26.887Z,4.50
2022-08-22T14:27:08.528Z,4.70
2022-08-22T14:30:18.706Z,4.78
2022-08-22T14:32:59.652Z,4.47
2022-08-22T14:35:41.217Z,4.40
2022-08-22T14:38:29.936Z,4.78
2022-08-22T14:41:55.420Z,4.47
2022-08-22T14:44:39.104Z,4.15
2022-08-22T14:47:55.471Z,4.70
2022-08-22T14:50:49.375Z,4.55
2022-08-22T14:53:20.207Z,4.40
2022-08-22T14:56:25.550Z,4.88
2022-08-22T14:58:58.898Z,4.70
2022-08-22T15:01:33.075Z,4.68
2022-08-22T15:04:10.445Z,7.50
2022-08-22T15:07:07.536Z,8.40
2022-08-22T15:09:52.560Z,8.40
2022-08-22T15:12:32.340Z,9.23
2022-08-22T15:15:05.160Z,8.30
2022-08-22T15:17:44.745Z,8.57
2022-08-22T15:20:49.244Z,8.13
2022-08-22T15:23:24.055Z,7.80
2022-08-22T15:26:23.827Z,6.60
2022-08-22T15:29:04.413Z,7.40
2022-08-22T15:31:32.372Z,8.00
2022-08-22T15:34:19.934Z,8.18
2022-08-22T15:37:16.638Z,8.50
2022-08-22T15:40:30.569Z,7.45
2022-08-22T15:42:59.110Z,7.00
2022-08-22T15:45:34.797Z,6.63
2022-08-22T15:48:10.843Z,5.50
2022-08-22T15:50:58.706Z,5.32
2022-08-22T15:54:02.619Z,5.97
2022-08-22T15:57:25.529Z,6.35
2022-08-22T16:00:11.117Z,6.47
2022-08-22T16:03:02.006Z,7.78
2022-08-22T16:05:54.584Z,8.98
2022-08-22T16:08:49.741Z,9.85
2022-08-22T16:14:21.473Z,10.20
2022-08-22T16:17:01.184Z,10.93
2022-08-22T16:19:31.871Z,10.38
2022-08-22T16:22:01.758Z,10.68
2022-08-22T16:24:33.826Z,10.25
2022-08-22T16:27:20.192Z,11.52
2022-08-22T16:29:47.747Z,10.40
2022-08-22T16:32:28.182Z,12.18
2022-08-22T16:34:55.647Z,12.60
2022-08-22T16:37:25.976Z,11.80
2022-08-22T16:40:01.049Z,12.00
2022-08-22T16:42:42.734Z,11.88
2022-08-22T16:45:34.880Z,12.30
2022-08-22T16:48:31.267Z,11.98
2022-08-22T16:51:15.963Z,11.85
2022-08-22T16:54:12.629Z,11.70
2022-08-22T16:57:09.177Z,11.38
2022-08-22T16:59:57.703Z,11.23
2022-08-22T17:02:48.355Z,11.85
2022-08-22T17:05:41.467Z,11.35
2022-08-22T17:08:34.603Z,11.90
2022-08-22T17:11:16.611Z,11.90
2022-08-22T17:14:21.034Z,12.00
2022-08-22T17:17:00.490Z,12.25
2022-08-22T17:20:03.105Z,11.80
2022-08-22T17:22:57.989Z,12.50
2022-08-22T17:25:54.309Z,12.23
2022-08-22T17:28:56.151Z,12.82
2022-08-22T17:31:50.950Z,12.88
2022-08-22T17:34:39.638Z,12.77
2022-08-22T17:37:53.163Z,13.02
2022-08-22T17:40:58.605Z,13.02
2022-08-22T17:44:16.107Z,13.40
2022-08-22T17:47:16.219Z,13.25
2022-08-22T17:49:45.199Z,13.55
2022-08-22T17:52:28.531Z,13.75
2022-08-22T17:55:28.416Z,13.20
2022-08-22T17:58:12.783Z,14.50
2022-08-22T18:01:32.161Z,14.00
2022-08-22T18:04:08.314Z,11.63
2022-08-22T18:06:47.564Z,11.30
2022-08-22T18:09:35.633Z,10.95
2022-08-22T18:12:15.908Z,11.48
2022-08-22T18:14:55.791Z,10.65
2022-08-22T18:17:44.389Z,10.90
2022-08-22T18:20:23.138Z,10.75
2022-08-22T18:23:21.748Z,11.35
2022-08-22T18:26:27.381Z,13.35
2022-08-22T18:29:06.551Z,13.30
2022-08-22T18:32:08.018Z,13.27
2022-08-22T18:35:16.893Z,13.77
2022-08-22T18:37:59.491Z,14.43
2022-08-22T18:40:55.189Z,14.38
2022-08-22T18:43:31.934Z,12.63
2022-08-22T18:46:04.072Z,12.18
2022-08-22T18:48:54.468Z,13.05
2022-08-22T18:51:38.858Z,12.50
2022-08-22T18:54:11.237Z,11.98
2022-08-22T18:57:42.472Z,13.20
2022-08-22T19:00:45.740Z,12.82
2022-08-22T19:03:40.983Z,12.55
2022-08-22T19:06:58.640Z,12.45
2022-08-22T19:10:20.918Z,13.00
2022-08-22T19:13:43.073Z,12.07
2022-08-22T19:16:52.209Z,14.50
2022-08-22T19:19:48.105Z,14.45
2022-08-22T19:22:22.103Z,14.00
2022-08-22T19:25:28.532Z,13.40
2022-08-22T19:28:15.077Z,12.07
2022-08-22T19:31:16.556Z,11.23
2022-08-22T19:34:09.223Z,11.52
2022-08-22T19:36:36.676Z,10.80
2022-08-22T19:39:10.557Z,11.13
2022-08-22T19:41:58.129Z,10.80
2022-08-22T19:44:35.163Z,10.50
2022-08-22T19:47:20.892Z,12.25
2022-08-22T19:50:08.088Z,11.60
2022-08-22T19:52:51.307Z,12.35
2022-08-22T19:55:45.479Z,11.07
2022-08-22T19:58:32.554Z,11.00
2022-08-22T20:01:32.071Z,11.20
2022-08-22T20:04:20.729Z,11.95
2022-08-22T20:07:45.323Z,12.65
2022-08-22T20:10:26.029Z,12.03
2022-08-22T20:13:18.883Z,12.15
2022-08-22T20:16:19.776Z,11.40
2022-08-22T20:19:06.015Z,11.25
2022-08-22T20:22:02.080Z,10.85
2022-08-22T20:25:02.662Z,12.48
2022-08-22T20:27:36.485Z,11.73
2022-08-22T20:30:15.528Z,11.75
2022-08-22T20:33:02.186Z,10.88
2022-08-22T20:35:45.411Z,10.57
2022-08-22T20:38:20.266Z,10.90
2022-08-22T20:41:13.553Z,10.60
2022-08-22T20:43:57.854Z,11.30
2022-08-22T20:47:12.938Z,11.13
2022-08-22T20:50:02.164Z,10.63
2022-08-22T20:52:51.805Z,10.73
2022-08-22T20:55:31.835Z,12.35
2022-08-22T20:58:25.161Z,11.43
2022-08-22T21:00:57.385Z,11.38
2022-08-22T21:03:46.824Z,11.57
2022-08-22T21:06:24.393Z,10.85
2022-08-22T21:12:18.241Z,11.00
2022-08-22T21:14:47.435Z,10.60
2022-08-22T21:17:39.086Z,11.35
2022-08-22T21:23:14.454Z,10.82
2022-08-22T21:25:52.042Z,11.57
2022-08-22T21:28:53.518Z,12.18
2022-08-22T21:31:29.320Z,12.80
2022-08-22T21:33:57.405Z,12.70
2022-08-22T21:36:30.366Z,12.55
2022-08-22T21:39:27.499Z,13.73
2022-08-22T21:42:00.683Z,12.93
2022-08-22T21:44:43.312Z,13.17
2022-08-22T21:47:31.569Z,13.52
2022-08-22T21:50:19.267Z,13.93
2022-08-22T21:52:55.413Z,13.02
2022-08-22T21:55:34.469Z,13.88
2022-08-22T21:58:35.931Z,12.60
2022-08-22T22:01:28.677Z,11.90
2022-08-22T22:03:58.877Z,12.02
2022-08-22T22:06:26.942Z,11.52
2022-08-22T22:08:55.276Z,10.63
2022-08-22T22:11:22.753Z,10.35
2022-08-22T22:13:50.060Z,11.10
2022-08-22T22:16:29.906Z,11.30
2022-08-22T22:18:57.333Z,10.85
2022-08-22T22:21:24.685Z,11.35
2022-08-22T22:23:52.596Z,10.05
2022-08-22T22:26:21.580Z,10.57
2022-08-22T22:28:50.344Z,10.30
2022-08-22T22:31:19.590Z,9.60
2022-08-22T22:33:47.093Z,9.45
2022-08-22T22:36:23.768Z,9.25
2022-08-22T22:38:52.228Z,8.32
2022-08-22T22:41:25.332Z,8.63
2022-08-22T22:43:54.657Z,8.30
2022-08-22T22:46:23.562Z,8.02
2022-08-22T22:48:51.187Z,8.50
2022-08-22T22:51:18.832Z,8.80
2022-08-22T22:53:46.789Z,8.25
2022-08-22T22:56:21.516Z,8.18
2022-08-22T22:58:49.890Z,8.05
2022-08-22T23:01:27.061Z,8.45
2022-08-22T23:03:57.592Z,8.05
2022-08-22T23:06:28.857Z,8.20
2022-08-22T23:08:57.867Z,8.63
2022-08-22T23:11:30.841Z,8.00
2022-08-22T23:13:58.142Z,9.23
2022-08-22T23:16:28.803Z,9.02
2022-08-22T23:18:56.829Z,8.40
2022-08-22T23:21:29.665Z,9.27
2022-08-22T23:26:29.050Z,7.65
2022-08-22T23:28:59.930Z,7.93
2022-08-22T23:37:35.919Z,8.50
2022-08-22T23:40:07.657Z,8.15
2022-08-22T23:42:35.225Z,8.50
2022-08-22T23:45:02.582Z,8.15
2022-08-22T23:47:30.033Z,8.02
2022-08-22T23:49:57.425Z,8.27
2022-08-22T23:52:25.355Z,7.53
2022-08-22T23:54:55.614Z,7.32
2022-08-22T23:57:27.722Z,7.75
2022-08-22T23:59:57.709Z,7.63
